Greenville, Florida
Current Conditions -  °F | °C
As of 5:15 PM on Sunday 25 Jan 2015 (Local Time) from K40J Reporting Station
Clear Clear  
Wind Chill: 57°   Ceiling: Unl
Heat Index: 57°   Visibility: 10mi
Dew Point: 42°   Wind: 9mph
Humidity: 57%   Direction: 210°SSW
Pressure: 29.96"   Gusts: NA
Location:  30.47°N, 83.63°W
Report Text: K40J 252215Z AUTO 21008KT 10SM CLR 14/05 A2996 RMK AO2 T01370053
Loading
Personal Weather Stations






























Interactive Weather Map New forecast layout! Learn more

10-Day Weather Forecast

Advertisements
Track Severe Weather on mobile